Time;durP1;ratioP1;P1;durP2;ratioP2;P2;SDS_P1;SDS_P2;PMS_P1;PMS_P2;Temp;Humidity;BMP_temperature;BMP_pressure;BME280_temperature;BME280_humidity;BME280_pressure;Samples;Min_cycle;Max_cycle;Signal;HPM_P1;HPM_P2
2023/07/27 00:00:08;;;;;;;7.35;5.63;;;;;;;;;;2076008;28;20053;-93
2023/07/27 00:01:25;;;;;;;12.44;5.80;;;;;;;;;;1898458;28;10001077;-96
2023/07/27 00:02:28;;;;;;;9.95;5.68;;;;;;;;;;1715837;28;10000795;-95
2023/07/27 00:03:28;;;;;;;9.73;6.05;;;;;;;;;;2056829;28;20026;-95
2023/07/27 00:04:31;;;;;;;8.32;5.30;;;;;;;;;;2056763;28;20023;-96
2023/07/27 00:05:34;;;;;;;9.82;5.97;;;;;;;;;;2056801;28;20026;-95
2023/07/27 00:06:35;;;;;;;12.23;6.05;;;;;;;;;;2065090;28;20045;-94
2023/07/27 00:07:35;;;;;;;8.40;5.30;;;;;;;;;;2072477;28;20034;-96
2023/07/27 00:08:36;;;;;;;9.27;5.70;;;;;;;;;;2064492;28;20031;-94
2023/07/27 00:09:36;;;;;;;7.28;5.50;;;;;;;;;;2064379;28;20030;-96
2023/07/27 00:10:37;;;;;;;8.32;5.18;;;;;;;;;;2064313;28;20094;-95
2023/07/27 00:11:37;;;;;;;10.45;6.03;;;;;;;;;;2064563;28;20048;-94
2023/07/27 00:12:38;;;;;;;8.20;5.43;;;;;;;;;;2064696;28;20126;-94
2023/07/27 00:13:41;;;;;;;8.77;5.57;;;;;;;;;;2064705;28;20022;-95
2023/07/27 00:14:42;;;;;;;8.98;5.55;;;;;;;;;;2056705;28;20100;-94
2023/07/27 00:15:42;;;;;;;10.27;6.03;;;;;;;;;;2064741;28;20030;-94
2023/07/27 00:16:43;;;;;;;9.60;5.95;;;;;;;;;;2064451;28;20033;-93
2023/07/27 00:17:43;;;;;;;7.50;5.55;;;;;;;;;;2064435;28;20133;-95
2023/07/27 00:19:04;;;;;;;8.70;5.40;;;;;;;;;;2062188;28;20133;-95
2023/07/27 00:20:07;;;;;;;8.52;5.72;;;;;;;;;;2073083;28;20529;-93
2023/07/27 00:21:07;;;;;;;8.13;5.43;;;;;;;;;;2064505;28;20328;-91
2023/07/27 00:22:08;;;;;;;9.05;5.85;;;;;;;;;;2056767;28;20169;-95
2023/07/27 00:23:08;;;;;;;9.43;6.45;;;;;;;;;;2064553;28;20021;-96
2023/07/27 00:24:09;;;;;;;10.23;6.47;;;;;;;;;;2065341;28;20048;-96
2023/07/27 00:25:12;;;;;;;10.75;6.00;;;;;;;;;;2065061;28;20129;-94
2023/07/27 00:26:13;;;;;;;8.98;6.05;;;;;;;;;;2064706;28;20014;-95
2023/07/27 00:27:13;;;;;;;11.07;6.38;;;;;;;;;;2056687;28;20518;-94
2023/07/27 00:28:14;;;;;;;11.05;6.57;;;;;;;;;;2064624;28;20030;-95
2023/07/27 00:29:14;;;;;;;11.63;6.63;;;;;;;;;;2068433;28;20026;-95
2023/07/27 00:30:15;;;;;;;9.82;6.50;;;;;;;;;;2066296;28;20082;-96
2023/07/27 00:31:15;;;;;;;8.35;6.40;;;;;;;;;;2065279;28;20021;-95
2023/07/27 00:32:16;;;;;;;11.02;5.90;;;;;;;;;;2073482;28;20045;-95
2023/07/27 00:33:16;;;;;;;9.27;5.97;;;;;;;;;;2082745;28;20017;-95
2023/07/27 00:34:17;;;;;;;9.63;6.18;;;;;;;;;;2068533;28;20109;-95
2023/07/27 00:35:18;;;;;;;10.93;6.78;;;;;;;;;;2071518;28;20169;-93
2023/07/27 00:36:18;;;;;;;11.38;6.25;;;;;;;;;;2082702;28;20042;-95
2023/07/27 00:37:19;;;;;;;11.00;6.88;;;;;;;;;;2074430;28;20435;-95
2023/07/27 00:38:20;;;;;;;9.98;6.80;;;;;;;;;;2073996;28;20030;-96
2023/07/27 00:39:20;;;;;;;11.60;6.93;;;;;;;;;;2072792;28;20036;-95
2023/07/27 00:40:21;;;;;;;13.52;7.38;;;;;;;;;;2064740;28;20038;-95
2023/07/27 00:41:21;;;;;;;10.27;7.05;;;;;;;;;;2073303;28;20144;-95
2023/07/27 00:42:22;;;;;;;9.43;6.63;;;;;;;;;;2072599;28;20061;-95
2023/07/27 00:43:23;;;;;;;12.50;7.15;;;;;;;;;;2064775;28;20568;-95
2023/07/27 00:44:24;;;;;;;12.27;7.28;;;;;;;;;;2065142;28;20026;-95
2023/07/27 00:45:26;;;;;;;10.75;6.97;;;;;;;;;;2073585;28;20176;-95
2023/07/27 00:46:27;;;;;;;14.95;7.88;;;;;;;;;;2073644;28;20101;-96
2023/07/27 00:47:28;;;;;;;12.25;7.10;;;;;;;;;;2070203;28;20050;-94
2023/07/27 00:48:29;;;;;;;11.38;7.28;;;;;;;;;;2074537;28;20007;-93
2023/07/27 00:49:33;;;;;;;16.23;7.72;;;;;;;;;;2082522;28;20018;-95
2023/07/27 00:50:35;;;;;;;10.50;7.88;;;;;;;;;;2082035;28;20021;-94
2023/07/27 00:52:46;;;;;;;11.60;7.28;;;;;;;;;;2203575;22;20046;-94
2023/07/27 00:53:47;;;;;;;12.75;7.78;;;;;;;;;;2067922;28;20082;-95
2023/07/27 00:54:48;;;;;;;12.25;7.72;;;;;;;;;;2060010;28;20137;-93
2023/07/27 00:55:49;;;;;;;13.43;7.82;;;;;;;;;;2067859;28;20033;-94
2023/07/27 00:56:49;;;;;;;11.00;6.97;;;;;;;;;;2069036;28;20070;-94
2023/07/27 00:57:51;;;;;;;9.18;7.10;;;;;;;;;;2077536;28;20550;-93
2023/07/27 00:58:51;;;;;;;10.10;7.05;;;;;;;;;;2067992;28;20018;-94
2023/07/27 00:59:52;;;;;;;11.50;7.43;;;;;;;;;;2066053;28;20033;-94
2023/07/27 01:00:52;;;;;;;10.18;7.05;;;;;;;;;;2066092;28;20477;-96
2023/07/27 01:01:53;;;;;;;10.50;7.28;;;;;;;;;;2066745;28;20172;-95
2023/07/27 01:02:54;;;;;;;12.07;6.68;;;;;;;;;;2065973;28;20414;-95
2023/07/27 01:03:55;;;;;;;10.50;7.38;;;;;;;;;;2065992;28;20073;-94
2023/07/27 01:04:55;;;;;;;10.43;6.55;;;;;;;;;;2066070;28;20027;-94
2023/07/27 01:05:56;;;;;;;8.55;6.70;;;;;;;;;;2066083;28;20427;-94
2023/07/27 01:06:57;;;;;;;9.50;6.72;;;;;;;;;;2057901;28;20033;-94
2023/07/27 01:07:57;;;;;;;9.20;6.95;;;;;;;;;;2058067;28;20409;-96
2023/07/27 01:08:58;;;;;;;9.85;7.22;;;;;;;;;;2058095;28;20475;-94
2023/07/27 01:09:59;;;;;;;15.27;9.02;;;;;;;;;;2057977;28;20351;-93
2023/07/27 01:11:10;;;;;;;11.52;6.63;;;;;;;;;;2058055;28;20109;-94
2023/07/27 01:12:25;;;;;;;11.07;7.65;;;;;;;;;;2067661;28;20351;-95
2023/07/27 01:13:45;;;;;;;11.50;7.10;;;;;;;;;;2065985;28;20030;-94
2023/07/27 01:19:13;;;;;;;9.18;6.88;;;;;;;;;;2064901;28;20502;-94
2023/07/27 01:20:20;;;;;;;10.30;7.22;;;;;;;;;;2057940;28;20122;-95
2023/07/27 01:21:27;;;;;;;11.18;7.47;;;;;;;;;;2058181;28;20046;-94
2023/07/27 01:22:42;;;;;;;10.45;7.32;;;;;;;;;;2067368;28;20053;-96
2023/07/27 01:23:52;;;;;;;11.90;7.60;;;;;;;;;;2063825;28;20126;-96
2023/07/27 01:25:13;;;;;;;11.00;7.07;;;;;;;;;;2058622;28;20030;-94
2023/07/27 01:26:37;;;;;;;12.13;7.80;;;;;;;;;;2053280;28;20023;-93
2023/07/27 01:28:11;;;;;;;11.77;7.70;;;;;;;;;;2056381;28;20034;-93
2023/07/27 01:29:48;;;;;;;12.18;8.32;;;;;;;;;;2054930;28;20018;-93
2023/07/27 01:30:57;;;;;;;10.20;7.75;;;;;;;;;;2054402;28;20037;-94
2023/07/27 01:31:59;;;;;;;11.52;7.68;;;;;;;;;;2058915;28;20047;-95
2023/07/27 01:33:10;;;;;;;11.57;7.90;;;;;;;;;;2057730;28;20126;-94
2023/07/27 01:34:17;;;;;;;11.05;7.47;;;;;;;;;;2059779;28;20410;-93
2023/07/27 01:35:21;;;;;;;11.60;7.68;;;;;;;;;;2059769;28;20121;-94
2023/07/27 01:36:26;;;;;;;13.13;7.82;;;;;;;;;;2060147;28;20410;-94
2023/07/27 01:37:29;;;;;;;13.02;7.50;;;;;;;;;;2057958;28;20433;-95
2023/07/27 01:38:32;;;;;;;11.48;7.60;;;;;;;;;;2058138;28;20030;-95
2023/07/27 01:39:38;;;;;;;12.10;7.78;;;;;;;;;;2057932;28;20029;-95
2023/07/27 01:40:40;;;;;;;13.23;7.80;;;;;;;;;;2058736;28;20030;-95
2023/07/27 01:41:41;;;;;;;11.18;7.65;;;;;;;;;;2066381;28;20034;-93
2023/07/27 01:42:44;;;;;;;8.35;6.93;;;;;;;;;;2057667;28;20069;-95
2023/07/27 01:43:45;;;;;;;10.35;7.25;;;;;;;;;;2057696;28;20027;-96
2023/07/27 01:44:49;;;;;;;8.70;5.90;;;;;;;;;;2057853;28;20077;-95
2023/07/27 01:45:51;;;;;;;11.10;7.25;;;;;;;;;;2057894;28;20522;-96
2023/07/27 01:49:10;;;;;;;9.90;6.50;;;;;;;;;;2033659;29;20579;-95
2023/07/27 01:50:13;;;;;;;12.52;6.28;;;;;;;;;;2036597;28;20051;-95
2023/07/27 01:51:14;;;;;;;11.27;7.43;;;;;;;;;;2058233;28;20081;-96
2023/07/27 01:52:17;;;;;;;12.13;6.90;;;;;;;;;;2057898;28;20078;-95
2023/07/27 01:53:19;;;;;;;9.60;6.93;;;;;;;;;;2050297;28;20029;-95
2023/07/27 01:54:20;;;;;;;9.50;6.40;;;;;;;;;;2058401;28;20037;-93
2023/07/27 01:55:22;;;;;;;10.00;7.18;;;;;;;;;;2054815;29;20062;-94
2023/07/27 01:56:27;;;;;;;8.73;6.18;;;;;;;;;;2063902;28;20027;-94
2023/07/27 01:57:28;;;;;;;12.02;6.32;;;;;;;;;;2059429;28;20034;-94
2023/07/27 01:58:29;;;;;;;10.25;5.80;;;;;;;;;;2056385;29;20115;-92
2023/07/27 01:59:30;;;;;;;8.68;6.38;;;;;;;;;;2064908;28;20031;-94
2023/07/27 02:00:31;;;;;;;10.13;6.07;;;;;;;;;;1698807;28;10428638;-95
2023/07/27 02:01:32;;;;;;;9.85;6.38;;;;;;;;;;2057849;29;20198;-91
2023/07/27 02:02:33;;;;;;;10.13;6.30;;;;;;;;;;2058826;28;20020;-95
2023/07/27 02:03:36;;;;;;;8.00;6.05;;;;;;;;;;2058547;28;20498;-96
2023/07/27 02:04:38;;;;;;;9.30;6.55;;;;;;;;;;2057753;28;20035;-93
2023/07/27 02:05:38;;;;;;;8.02;6.15;;;;;;;;;;2057758;28;20086;-94
2023/07/27 02:06:49;;;;;;;11.10;6.07;;;;;;;;;;1891082;28;10258537;-94
2023/07/27 02:07:50;;;;;;;8.07;6.10;;;;;;;;;;2053116;28;20334;-93
2023/07/27 02:08:51;;;;;;;9.13;6.00;;;;;;;;;;2067106;28;20019;-94
2023/07/27 02:09:51;;;;;;;9.32;5.93;;;;;;;;;;2072655;28;20105;-93
2023/07/27 02:10:57;;;;;;;7.65;5.32;;;;;;;;;;2057882;28;20062;-93
2023/07/27 02:12:19;;;;;;;10.68;6.30;;;;;;;;;;2050515;28;20039;-95
2023/07/27 02:13:35;;;;;;;12.25;6.72;;;;;;;;;;2057784;28;20038;-95
2023/07/27 02:15:11;;;;;;;10.48;6.57;;;;;;;;;;2051709;28;20031;-95
2023/07/27 02:16:47;;;;;;;9.15;5.93;;;;;;;;;;2022477;29;20119;-95
2023/07/27 02:17:55;;;;;;;9.38;5.93;;;;;;;;;;2063322;28;20026;-95
2023/07/27 02:25:55;;;;;;;10.00;5.97;;;;;;;;;;2080616;28;20770;-95
2023/07/27 02:26:57;;;;;;;16.85;6.55;;;;;;;;;;2073293;28;20091;-93
2023/07/27 02:27:58;;;;;;;10.05;6.18;;;;;;;;;;2073842;28;20041;-94
2023/07/27 02:28:58;;;;;;;10.55;6.53;;;;;;;;;;2073298;28;20473;-94
2023/07/27 02:30:00;;;;;;;9.82;5.68;;;;;;;;;;2065474;28;20018;-94
2023/07/27 02:31:04;;;;;;;10.73;5.85;;;;;;;;;;2073422;28;20476;-94
2023/07/27 02:32:05;;;;;;;7.57;5.35;;;;;;;;;;2073347;28;20034;-96
2023/07/27 02:33:05;;;;;;;9.55;6.18;;;;;;;;;;2065530;28;20520;-95
2023/07/27 02:37:40;;;;;;;9.90;5.47;;;;;;;;;;2083811;28;20056;-93
2023/07/27 02:38:48;;;;;;;12.10;6.38;;;;;;;;;;2090166;28;20017;-93
2023/07/27 02:39:49;;;;;;;9.43;5.25;;;;;;;;;;2073728;28;20036;-94
2023/07/27 02:40:50;;;;;;;7.43;5.85;;;;;;;;;;2073444;28;20425;-94
2023/07/27 02:41:50;;;;;;;10.16;5.33;;;;;;;;;;1716917;28;10103753;-94
2023/07/27 02:42:51;;;;;;;10.93;5.95;;;;;;;;;;2064964;28;20053;-94
2023/07/27 02:43:51;;;;;;;8.68;6.00;;;;;;;;;;2064993;28;20517;-94
2023/07/27 02:44:52;;;;;;;6.80;5.63;;;;;;;;;;2065106;28;20142;-93
2023/07/27 02:46:00;;;;;;;9.20;5.70;;;;;;;;;;2073839;28;20049;-94
2023/07/27 02:47:00;;;;;;;9.60;6.50;;;;;;;;;;1724088;28;10098141;-95
2023/07/27 02:48:03;;;;;;;6.85;5.40;;;;;;;;;;2067383;28;20023;-94
2023/07/27 02:49:03;;;;;;;8.45;6.00;;;;;;;;;;2075888;28;20030;-93
2023/07/27 02:50:04;;;;;;;8.05;4.72;;;;;;;;;;2075097;28;20045;-94
2023/07/27 02:51:05;;;;;;;8.57;5.68;;;;;;;;;;2065825;28;20213;-94
2023/07/27 02:52:05;;;;;;;11.25;6.28;;;;;;;;;;2065187;28;20425;-94
2023/07/27 02:53:06;;;;;;;8.25;5.50;;;;;;;;;;2065364;28;20536;-94
2023/07/27 02:54:06;;;;;;;7.85;5.55;;;;;;;;;;2075511;28;20436;-93
2023/07/27 02:55:07;;;;;;;11.60;5.85;;;;;;;;;;2083106;28;20017;-94
2023/07/27 02:56:08;;;;;;;8.88;5.53;;;;;;;;;;2080080;28;20467;-95
2023/07/27 02:57:08;;;;;;;6.45;5.20;;;;;;;;;;2073353;28;20450;-94
2023/07/27 02:58:09;;;;;;;7.20;5.75;;;;;;;;;;2073458;28;20101;-94
2023/07/27 02:59:09;;;;;;;9.45;5.43;;;;;;;;;;2065226;28;20129;-92
2023/07/27 03:00:10;;;;;;;7.68;5.57;;;;;;;;;;2073257;28;20084;-96
2023/07/27 03:01:10;;;;;;;6.78;4.97;;;;;;;;;;2073206;28;20018;-96
2023/07/27 03:02:11;;;;;;;8.73;5.93;;;;;;;;;;2073549;28;20024;-94
2023/07/27 03:03:11;;;;;;;9.65;5.55;;;;;;;;;;2065132;28;20057;-94
2023/07/27 03:04:12;;;;;;;9.05;6.03;;;;;;;;;;2065094;28;20491;-93
2023/07/27 03:05:12;;;;;;;9.70;5.53;;;;;;;;;;2073260;28;20049;-95
2023/07/27 03:06:13;;;;;;;9.27;5.63;;;;;;;;;;2082114;28;20496;-95
2023/07/27 03:07:13;;;;;;;9.95;5.88;;;;;;;;;;2073210;28;20048;-95
2023/07/27 03:08:14;;;;;;;9.18;5.63;;;;;;;;;;2073055;28;20100;-95
2023/07/27 03:09:14;;;;;;;7.80;5.35;;;;;;;;;;2065375;28;20023;-94
2023/07/27 03:10:15;;;;;;;7.85;5.07;;;;;;;;;;2065401;28;20042;-93
2023/07/27 03:11:18;;;;;;;10.05;5.45;;;;;;;;;;2073336;28;20608;-95
2023/07/27 03:12:23;;;;;;;8.48;5.30;;;;;;;;;;2089592;28;20021;-96
2023/07/27 03:13:23;;;;;;;11.23;5.57;;;;;;;;;;2073308;28;20425;-95
2023/07/27 03:14:24;;;;;;;9.18;5.50;;;;;;;;;;2074197;28;20031;-94
2023/07/27 03:15:24;;;;;;;8.07;5.55;;;;;;;;;;2065918;28;20026;-96
2023/07/27 03:16:24;;;;;;;8.63;4.72;;;;;;;;;;2074472;28;20022;-94
2023/07/27 03:17:25;;;;;;;6.75;4.65;;;;;;;;;;2067865;28;20512;-92
2023/07/27 03:18:25;;;;;;;8.07;5.25;;;;;;;;;;2074811;28;20029;-94
2023/07/27 03:19:26;;;;;;;8.90;5.63;;;;;;;;;;2081834;28;20030;-95
2023/07/27 03:20:27;;;;;;;7.43;5.13;;;;;;;;;;2081874;28;20035;-94
2023/07/27 03:21:27;;;;;;;9.48;4.90;;;;;;;;;;2072795;28;20492;-95
2023/07/27 03:22:28;;;;;;;7.88;4.88;;;;;;;;;;2064811;28;20050;-93
2023/07/27 03:23:28;;;;;;;7.78;4.95;;;;;;;;;;2064593;28;20078;-93
2023/07/27 03:24:29;;;;;;;8.52;5.45;;;;;;;;;;2072342;28;20042;-94
2023/07/27 03:25:32;;;;;;;9.85;5.43;;;;;;;;;;2072858;28;20487;-93
2023/07/27 03:26:32;;;;;;;7.90;5.07;;;;;;;;;;2065205;28;20037;-92
2023/07/27 03:27:33;;;;;;;7.72;5.50;;;;;;;;;;2065031;28;20038;-95
2023/07/27 03:28:34;;;;;;;7.72;5.25;;;;;;;;;;2064815;28;20030;-93
2023/07/27 03:29:35;;;;;;;8.20;5.30;;;;;;;;;;2065014;28;20038;-95
2023/07/27 03:30:43;;;;;;;7.32;5.55;;;;;;;;;;2070976;28;20045;-96
2023/07/27 03:31:44;;;;;;;8.02;5.25;;;;;;;;;;2081331;28;20029;-96
2023/07/27 03:32:45;;;;;;;6.85;4.55;;;;;;;;;;2064989;28;20044;-93
2023/07/27 03:33:48;;;;;;;6.32;5.07;;;;;;;;;;2073648;28;20121;-93
2023/07/27 03:34:48;;;;;;;11.07;5.20;;;;;;;;;;2081943;28;20029;-95
2023/07/27 03:35:49;;;;;;;8.35;4.93;;;;;;;;;;2082472;28;20025;-93
2023/07/27 03:36:49;;;;;;;5.30;4.20;;;;;;;;;;2082112;28;20080;-94
2023/07/27 03:37:53;;;;;;;7.53;5.28;;;;;;;;;;2073436;28;20045;-94
2023/07/27 03:38:53;;;;;;;7.22;5.32;;;;;;;;;;2065245;28;20041;-95
2023/07/27 03:39:54;;;;;;;6.63;5.03;;;;;;;;;;2072722;28;20178;-95
2023/07/27 03:40:54;;;;;;;8.32;5.28;;;;;;;;;;2070090;28;20030;-93
2023/07/27 03:41:54;;;;;;;7.22;4.82;;;;;;;;;;2074367;28;20018;-91
2023/07/27 03:42:55;;;;;;;8.70;5.50;;;;;;;;;;2074024;28;20499;-93
2023/07/27 03:43:55;;;;;;;10.23;5.00;;;;;;;;;;2064932;28;20068;-93
2023/07/27 03:44:56;;;;;;;7.43;4.75;;;;;;;;;;2064821;28;20486;-93
2023/07/27 03:45:56;;;;;;;10.45;4.75;;;;;;;;;;2064774;28;20018;-94
2023/07/27 03:46:57;;;;;;;8.63;5.40;;;;;;;;;;2064684;28;20180;-94
2023/07/27 03:47:57;;;;;;;7.30;4.85;;;;;;;;;;2064895;28;20029;-95
2023/07/27 03:48:58;;;;;;;9.68;5.05;;;;;;;;;;2073182;28;20133;-95
2023/07/27 03:49:58;;;;;;;9.23;5.13;;;;;;;;;;2072938;28;20037;-94
2023/07/27 03:51:00;;;;;;;7.63;5.28;;;;;;;;;;2073316;28;20088;-96
2023/07/27 03:52:01;;;;;;;7.35;5.40;;;;;;;;;;2072913;28;20014;-96
2023/07/27 03:53:01;;;;;;;8.18;4.68;;;;;;;;;;2064745;28;20057;-95
2023/07/27 03:54:04;;;;;;;8.40;4.72;;;;;;;;;;2064640;28;20533;-95
2023/07/27 03:55:05;;;;;;;7.72;5.30;;;;;;;;;;2064936;28;20014;-93
2023/07/27 03:56:07;;;;;;;7.53;5.15;;;;;;;;;;2064621;28;20022;-94
2023/07/27 03:57:07;;;;;;;8.82;5.50;;;;;;;;;;2073132;28;20494;-95
2023/07/27 03:58:08;;;;;;;7.60;4.97;;;;;;;;;;2072684;28;20022;-95
2023/07/27 03:59:11;;;;;;;6.50;4.95;;;;;;;;;;2072550;28;20029;-95
2023/07/27 04:00:38;;;;;;;7.93;5.47;;;;;;;;;;2065271;28;20030;-94
2023/07/27 04:05:34;;;;;;;11.13;5.10;;;;;;;;;;2090065;28;20033;-96
2023/07/27 04:06:35;;;;;;;8.82;6.00;;;;;;;;;;2077166;28;20110;-95
2023/07/27 04:07:35;;;;;;;10.50;6.25;;;;;;;;;;2078869;28;20512;-92
2023/07/27 04:08:35;;;;;;;7.22;5.22;;;;;;;;;;2078713;28;20563;-93
2023/07/27 04:09:37;;;;;;;8.18;5.10;;;;;;;;;;2071777;28;20054;-93
2023/07/27 04:10:40;;;;;;;7.18;5.93;;;;;;;;;;2067974;28;20041;-94
2023/07/27 04:11:40;;;;;;;8.07;5.30;;;;;;;;;;2067023;28;20030;-94
2023/07/27 04:12:40;;;;;;;8.77;5.85;;;;;;;;;;2073013;28;20033;-95
2023/07/27 04:13:41;;;;;;;10.35;5.78;;;;;;;;;;2073598;28;20128;-95
2023/07/27 04:14:41;;;;;;;6.82;4.72;;;;;;;;;;2073241;28;20034;-94
2023/07/27 04:15:42;;;;;;;8.65;5.82;;;;;;;;;;2072986;28;20470;-94
2023/07/27 04:16:43;;;;;;;9.43;5.93;;;;;;;;;;2072761;28;20058;-93
2023/07/27 04:17:46;;;;;;;9.60;5.63;;;;;;;;;;2072725;28;20418;-94
2023/07/27 04:18:46;;;;;;;8.60;5.60;;;;;;;;;;2072577;28;20496;-94
2023/07/27 04:19:48;;;;;;;8.73;6.13;;;;;;;;;;2064468;28;20106;-94
2023/07/27 04:20:48;;;;;;;6.53;5.65;;;;;;;;;;2072722;28;20034;-94
2023/07/27 04:21:49;;;;;;;8.63;6.03;;;;;;;;;;2081606;28;20035;-93
2023/07/27 04:22:50;;;;;;;9.77;5.88;;;;;;;;;;2081708;28;20052;-95
2023/07/27 04:23:50;;;;;;;8.93;5.85;;;;;;;;;;2087675;28;20029;-92
2023/07/27 04:24:51;;;;;;;11.35;5.90;;;;;;;;;;2081107;28;20037;-95
2023/07/27 04:25:51;;;;;;;7.57;5.47;;;;;;;;;;2077109;28;20049;-94
2023/07/27 04:26:52;;;;;;;6.65;5.22;;;;;;;;;;2079306;28;20029;-93
2023/07/27 04:27:52;;;;;;;8.55;5.72;;;;;;;;;;2078620;28;20030;-94
2023/07/27 04:28:53;;;;;;;8.82;5.90;;;;;;;;;;2073946;28;20025;-93
2023/07/27 04:29:56;;;;;;;7.90;5.97;;;;;;;;;;2081651;28;20036;-93
2023/07/27 04:30:57;;;;;;;9.50;6.20;;;;;;;;;;2064770;28;20033;-94
2023/07/27 04:31:57;;;;;;;8.13;5.97;;;;;;;;;;2065031;28;20025;-95
2023/07/27 04:32:58;;;;;;;9.10;6.00;;;;;;;;;;2073033;28;20571;-94
2023/07/27 04:33:58;;;;;;;9.00;6.10;;;;;;;;;;2072394;28;20021;-94
2023/07/27 04:34:58;;;;;;;9.07;6.32;;;;;;;;;;2064548;28;20120;-96
2023/07/27 04:36:00;;;;;;;9.63;5.90;;;;;;;;;;2072885;28;20050;-94
2023/07/27 04:37:00;;;;;;;12.32;5.15;;;;;;;;;;2072764;28;20033;-93
2023/07/27 04:38:01;;;;;;;7.78;5.28;;;;;;;;;;2072565;28;20018;-94
2023/07/27 04:39:01;;;;;;;8.77;5.82;;;;;;;;;;2073136;28;20033;-94
2023/07/27 04:40:02;;;;;;;11.25;6.10;;;;;;;;;;2067712;28;20022;-93
2023/07/27 04:41:03;;;;;;;9.65;5.75;;;;;;;;;;2075313;28;20042;-93
2023/07/27 04:42:03;;;;;;;8.60;5.43;;;;;;;;;;2076754;28;20089;-91
2023/07/27 04:43:05;;;;;;;8.57;5.90;;;;;;;;;;2074824;28;20022;-95
2023/07/27 04:44:05;;;;;;;6.55;5.28;;;;;;;;;;2074630;28;20022;-94
2023/07/27 04:45:07;;;;;;;7.00;5.13;;;;;;;;;;2075779;28;20103;-92
2023/07/27 04:46:07;;;;;;;9.20;5.40;;;;;;;;;;2064821;28;20034;-93
2023/07/27 04:47:08;;;;;;;9.73;5.20;;;;;;;;;;2065478;28;20153;-94
2023/07/27 04:48:08;;;;;;;7.65;5.20;;;;;;;;;;2073108;28;20389;-94
2023/07/27 04:49:09;;;;;;;6.82;5.10;;;;;;;;;;2072806;28;20025;-94
2023/07/27 04:50:10;;;;;;;7.40;4.80;;;;;;;;;;2065019;28;20052;-95
2023/07/27 04:51:10;;;;;;;6.88;5.25;;;;;;;;;;2064110;28;20105;-96
2023/07/27 04:52:13;;;;;;;9.73;5.32;;;;;;;;;;2063987;28;20449;-95
2023/07/27 04:53:16;;;;;;;8.55;5.13;;;;;;;;;;2064568;28;20026;-94
2023/07/27 04:54:20;;;;;;;6.80;5.30;;;;;;;;;;2072654;28;20060;-96
2023/07/27 04:55:20;;;;;;;8.95;5.30;;;;;;;;;;2072175;28;20025;-95
2023/07/27 04:56:21;;;;;;;6.68;4.82;;;;;;;;;;2072310;28;20053;-94
2023/07/27 04:57:21;;;;;;;7.22;4.88;;;;;;;;;;2072282;28;20105;-93
2023/07/27 04:58:29;;;;;;;6.53;4.80;;;;;;;;;;2072361;28;20026;-93
2023/07/27 04:59:30;;;;;;;8.20;4.93;;;;;;;;;;2072739;28;20037;-95
2023/07/27 05:00:30;;;;;;;6.22;4.20;;;;;;;;;;2072593;28;20022;-93
2023/07/27 05:01:31;;;;;;;8.32;5.15;;;;;;;;;;2081563;28;20124;-93
2023/07/27 05:02:31;;;;;;;8.40;4.80;;;;;;;;;;2074116;28;20116;-95
2023/07/27 05:03:32;;;;;;;8.60;5.05;;;;;;;;;;2072908;28;20030;-93
2023/07/27 05:04:32;;;;;;;7.10;4.75;;;;;;;;;;2072835;28;20096;-94
2023/07/27 05:05:32;;;;;;;6.13;4.13;;;;;;;;;;2073473;28;20054;-94
2023/07/27 05:06:34;;;;;;;8.70;4.80;;;;;;;;;;2068712;28;20018;-93
2023/07/27 05:07:35;;;;;;;6.32;4.47;;;;;;;;;;2077013;28;20026;-94
2023/07/27 05:08:35;;;;;;;10.15;5.90;;;;;;;;;;2072723;28;20060;-92
2023/07/27 05:09:36;;;;;;;7.53;5.38;;;;;;;;;;2072692;28;20104;-94
2023/07/27 05:10:41;;;;;;;8.10;5.93;;;;;;;;;;2064281;28;20029;-94
2023/07/27 05:11:42;;;;;;;8.23;5.85;;;;;;;;;;2073013;28;20029;-94
2023/07/27 05:12:45;;;;;;;7.45;5.10;;;;;;;;;;2072818;28;20028;-93
2023/07/27 05:13:45;;;;;;;10.82;5.68;;;;;;;;;;2066887;28;20148;-93
2023/07/27 05:14:48;;;;;;;9.68;6.10;;;;;;;;;;2079951;28;20026;-91
2023/07/27 05:15:49;;;;;;;10.93;6.18;;;;;;;;;;2077445;28;20403;-93
2023/07/27 05:16:51;;;;;;;9.77;5.88;;;;;;;;;;2064695;28;20115;-92
2023/07/27 05:17:54;;;;;;;10.20;5.72;;;;;;;;;;2073199;28;20025;-94
2023/07/27 05:18:57;;;;;;;8.05;5.88;;;;;;;;;;2081722;28;20408;-93
2023/07/27 05:19:58;;;;;;;7.70;5.95;;;;;;;;;;2072816;28;20025;-94
2023/07/27 05:21:06;;;;;;;11.82;5.78;;;;;;;;;;2065117;28;20049;-96
2023/07/27 05:22:07;;;;;;;10.50;5.82;;;;;;;;;;2072676;28;20022;-91
2023/07/27 05:23:07;;;;;;;9.20;6.05;;;;;;;;;;2065117;28;20608;-94
2023/07/27 05:24:11;;;;;;;10.95;6.88;;;;;;;;;;2064738;28;20019;-96
2023/07/27 05:25:13;;;;;;;11.10;5.35;;;;;;;;;;2072745;28;20028;-93
2023/07/27 05:26:16;;;;;;;10.75;5.30;;;;;;;;;;2064707;28;20014;-96
2023/07/27 05:27:17;;;;;;;8.40;5.32;;;;;;;;;;2064810;28;20074;-93
2023/07/27 05:28:17;;;;;;;9.77;5.68;;;;;;;;;;2072484;28;20014;-95
2023/07/27 05:29:18;;;;;;;8.40;5.55;;;;;;;;;;2072728;28;20022;-94
2023/07/27 05:30:20;;;;;;;10.50;5.70;;;;;;;;;;2072875;28;20038;-95
2023/07/27 05:31:24;;;;;;;9.27;5.47;;;;;;;;;;2071887;28;20123;-94
2023/07/27 05:32:24;;;;;;;10.40;5.60;;;;;;;;;;2064451;28;20031;-93
2023/07/27 05:33:24;;;;;;;10.35;6.00;;;;;;;;;;2072203;28;20105;-96
2023/07/27 05:34:25;;;;;;;10.27;6.13;;;;;;;;;;2064377;28;20054;-95
2023/07/27 05:35:25;;;;;;;8.55;5.30;;;;;;;;;;2072222;28;20113;-94
2023/07/27 05:36:28;;;;;;;13.82;5.15;;;;;;;;;;2063880;28;20030;-93
2023/07/27 05:37:29;;;;;;;6.68;4.53;;;;;;;;;;2072950;28;20025;-96
2023/07/27 05:38:32;;;;;;;9.40;5.13;;;;;;;;;;2080451;28;20029;-96
2023/07/27 05:39:32;;;;;;;11.40;5.43;;;;;;;;;;2081676;28;20029;-96
2023/07/27 05:40:36;;;;;;;6.63;4.90;;;;;;;;;;2072081;28;20032;-94
2023/07/27 05:41:36;;;;;;;7.35;5.75;;;;;;;;;;2064596;28;20030;-92
2023/07/27 05:42:37;;;;;;;6.78;4.70;;;;;;;;;;2064541;28;20023;-95
2023/07/27 05:43:37;;;;;;;10.15;5.25;;;;;;;;;;2065746;28;20024;-95
2023/07/27 05:44:46;;;;;;;7.53;5.05;;;;;;;;;;2073763;28;20032;-94
2023/07/27 05:45:59;;;;;;;9.30;5.15;;;;;;;;;;2065291;28;20125;-93
2023/07/27 05:47:14;;;;;;;8.25;4.78;;;;;;;;;;2074949;28;20022;-96
2023/07/27 05:48:37;;;;;;;8.45;5.22;;;;;;;;;;2083284;28;20061;-96
2023/07/27 05:49:37;;;;;;;7.72;4.72;;;;;;;;;;2071668;28;20413;-92
2023/07/27 05:50:38;;;;;;;5.65;4.32;;;;;;;;;;2066877;28;20118;-93
2023/07/27 05:51:39;;;;;;;7.30;5.00;;;;;;;;;;2078228;28;20026;-93
2023/07/27 05:52:39;;;;;;;11.93;4.68;;;;;;;;;;2078872;28;20040;-95
2023/07/27 05:53:39;;;;;;;7.10;4.07;;;;;;;;;;2079854;28;20021;-92
2023/07/27 05:54:40;;;;;;;7.07;3.90;;;;;;;;;;2069783;28;20521;-93
2023/07/27 05:55:40;;;;;;;8.88;4.50;;;;;;;;;;2068451;28;20038;-96
2023/07/27 05:56:41;;;;;;;5.68;4.05;;;;;;;;;;2075891;28;20091;-93
2023/07/27 05:57:41;;;;;;;7.70;4.30;;;;;;;;;;2076310;28;20033;-94
2023/07/27 05:58:42;;;;;;;6.68;3.63;;;;;;;;;;2074067;28;20026;-93
2023/07/27 05:59:42;;;;;;;4.28;3.65;;;;;;;;;;2066149;28;20044;-93
2023/07/27 06:00:43;;;;;;;5.32;3.60;;;;;;;;;;2081750;28;20050;-92
2023/07/27 06:01:43;;;;;;;6.25;4.32;;;;;;;;;;2082420;28;20022;-95
2023/07/27 06:02:45;;;;;;;5.05;3.65;;;;;;;;;;2066631;28;20581;-94
2023/07/27 06:03:48;;;;;;;6.90;4.30;;;;;;;;;;2066514;28;20038;-94
2023/07/27 06:04:49;;;;;;;7.10;3.90;;;;;;;;;;2075019;28;20434;-94
2023/07/27 06:05:51;;;;;;;5.00;4.00;;;;;;;;;;2075191;28;20022;-93
2023/07/27 06:06:53;;;;;;;4.75;3.78;;;;;;;;;;2058125;28;20046;-93
2023/07/27 06:07:53;;;;;;;8.77;3.90;;;;;;;;;;2050988;28;20113;-93
2023/07/27 06:08:54;;;;;;;7.15;4.78;;;;;;;;;;2066686;28;20054;-95
2023/07/27 06:09:54;;;;;;;9.35;4.28;;;;;;;;;;2075193;28;20172;-92
2023/07/27 06:11:09;;;;;;;5.05;4.20;;;;;;;;;;2075173;28;20030;-94
2023/07/27 06:12:12;;;;;;;7.32;4.40;;;;;;;;;;2075324;28;20018;-95
2023/07/27 06:13:13;;;;;;;9.82;4.30;;;;;;;;;;2074720;28;20220;-94
2023/07/27 06:14:13;;;;;;;7.13;4.30;;;;;;;;;;2067162;28;20043;-93
2023/07/27 06:15:14;;;;;;;6.22;4.50;;;;;;;;;;2075250;28;20026;-95
2023/07/27 06:16:15;;;;;;;5.70;4.20;;;;;;;;;;2074964;28;20520;-92
2023/07/27 06:17:15;;;;;;;5.18;4.20;;;;;;;;;;2067527;28;20030;-94
2023/07/27 06:18:16;;;;;;;5.95;4.30;;;;;;;;;;2067269;28;20109;-92
2023/07/27 06:19:19;;;;;;;6.32;4.68;;;;;;;;;;2067840;28;20025;-93
2023/07/27 06:20:19;;;;;;;12.50;4.88;;;;;;;;;;2068486;28;20069;-93
2023/07/27 06:21:20;;;;;;;6.50;4.60;;;;;;;;;;2066403;28;20501;-95
2023/07/27 06:22:20;;;;;;;6.45;4.55;;;;;;;;;;2066348;28;20030;-94
2023/07/27 06:23:21;;;;;;;6.25;4.47;;;;;;;;;;2066255;28;20473;-95
2023/07/27 06:24:21;;;;;;;7.82;4.35;;;;;;;;;;2066234;28;20057;-94
2023/07/27 06:25:25;;;;;;;7.22;4.60;;;;;;;;;;2074663;28;20132;-96
2023/07/27 06:26:27;;;;;;;9.05;4.70;;;;;;;;;;2074732;28;20046;-95
2023/07/27 06:27:27;;;;;;;6.05;4.30;;;;;;;;;;2074896;28;20037;-94
2023/07/27 06:28:28;;;;;;;6.32;4.60;;;;;;;;;;2074670;28;20021;-96
2023/07/27 06:29:30;;;;;;;6.22;4.55;;;;;;;;;;2083642;28;20033;-95
2023/07/27 06:30:30;;;;;;;6.15;4.22;;;;;;;;;;2075040;28;20027;-95
2023/07/27 06:31:30;;;;;;;6.85;4.82;;;;;;;;;;2066359;28;20030;-92
2023/07/27 06:32:31;;;;;;;5.93;4.00;;;;;;;;;;1725099;28;10109550;-95
2023/07/27 06:33:31;;;;;;;12.70;4.55;;;;;;;;;;2066386;28;20405;-93
2023/07/27 06:34:32;;;;;;;7.35;4.70;;;;;;;;;;2074089;28;20034;-94